FNLU/LAD METAR and TAF weather

Enter ICAO airport designator
Station Type Date Time Source
FNLU METAR 2019/08/19 23:00 UTC NOAA

FNLU 192300Z 17007KT 8000 FEW019 20/20 Q1013


Station Type Date Time Source
FNLU Decoded METAR 2019/08/19 23:00 UTC NOAA

Luanda, Angola (FNLU) 08-51S 013-14E 70M
Aug 19, 2019 - 07:00 PM EDT / 2019.08.19 2300 UTC
Wind: from the S (170 degrees) at 8 MPH (7 KT):0
Visibility: 4 mile(s):0
Sky conditions: mostly clear
Temperature: 68 F (20 C)
Dew Point: 68 F (20 C)
Relative Humidity: 100%
Pressure (altimeter): 29.91 in. Hg (1013 hPa)
ob: FNLU 192300Z 17007KT 8000 FEW019 20/20 Q1013
cycle: 23

Station Type Date Time Source
FNLU TAF 2019/08/19 18:51 UTC NOAA

TAF TAF FNLU 191745Z 1918/2012 22010KT 9000 FEW025
TEMPO 1918/1922 16008KT 8000 NSC
BECMG 2003/2005 VRB03KT 5000 BR
TEMPO 2008/2012 VRB03KT

Example: see airport list